Flight Track Log - Related Links

Times and Time Zones

All times are in EDT time to prevent confusion due to time zone crossing. See the N340PP flight status page for this flight to view local times or setup timezone preferences in your user account.

Time Position Orientation Groundspeed Altitude Reporting Facility
EDT Latitude Longitude Course Direction KTS MPH feet Rate Location/Type
Thu 07:18:00 PM 43.5914 -103.2008 14° North  Level Estimated
Thu 07:20:47 PM 43.6753 -103.1986 North 146 168 12,000  Level Denver Center
Thu 07:21:42 PM 43.7169 -103.1928 North 178 205 12,000  Level Denver Center
Thu 07:22:42 PM 43.7672 -103.1875 North 174 200 12,000  Level Denver Center
Thu 07:23:43 PM 43.8150 -103.1800 North 168 193 12,000  Level Denver Center
Thu 07:24:44 PM 43.8611 -103.1761 North 170 196 12,000  Level Denver Center
Thu 07:25:00 PM 43.9187 -103.2860 North  Level FlightAware Approximate
Thu 07:25:44 PM 43.9094 -103.1714 North 171 197 12,000  Level Denver Center
Thu 07:26:00 PM 43.9655 -103.2783 North  Level FlightAware Approximate
Thu 07:26:45 PM 43.9572 -103.1639 North 174 200 12,000  Level Denver Center
Thu 07:27:45 PM 44.0075 -103.1586 North 172 198 12,000  Level Denver Center
Thu 07:28:46 PM 44.0536 -103.1544 North 174 200 12,000  Level Denver Center
Thu 07:29:47 PM 44.1053 -103.1456 North 182 209 12,000  Level Denver Center
Thu 07:30:47 PM 44.1556 -103.1403 North 187 215 12,000  Level Denver Center
Thu 07:31:48 PM 44.2100 -103.1339 North 186 214 12,000  Level Denver Center
Thu 07:32:48 PM 44.2597 -103.1256 North 186 214 12,000  Level Denver Center
Thu 07:33:49 PM 44.3144 -103.1219 North 186 214 12,000  Level Denver Center
Thu 07:34:50 PM 44.3647 -103.1167 North 188 216 12,000  Level Denver Center
Thu 07:35:50 PM 44.4169 -103.1108 North 186 214 12,000  Level Denver Center
Thu 07:36:51 PM 44.4669 -103.1025 North 186 214 12,000  Level Denver Center
Thu 07:37:31 PM 44.5042 -103.0983 North 189 217 12,000  Level Denver Center
Thu 07:37:51 PM 44.5233 -103.0956 North 197 227 12,000  Level Denver Center
Thu 07:38:33 PM 44.5564 -103.0900 North 189 217 12,000  Level Denver Center
Thu 07:39:36 PM 44.6047 -103.0828 North 187 215 12,000  Level Denver Center
Thu 07:40:38 PM 44.6550 -103.0756 North 186 214 12,000  Level Denver Center
Thu 07:41:40 PM 44.7064 -103.0703 North 185 213 12,000 48 Level Denver Center
Thu 07:42:42 PM 44.7694 -103.0619 North 185 213 12,100  Climbing Denver Center
Thu 07:43:44 PM 44.8219 -103.0556 North 186 214 12,000 -48 Descending Denver Center
Thu 07:44:46 PM 44.8742 -103.0497 North 186 214 12,000  Level Denver Center
Thu 07:45:49 PM 44.9256 -103.0442 North 186 214 12,000  Level Denver Center
Thu 07:46:51 PM 44.9761 -103.0369 North 186 214 12,000  Level Denver Center
Thu 07:47:53 PM 45.0364 -103.0308 North 186 214 12,000  Level Denver Center
Thu 07:48:55 PM 45.0858 -103.0244 North 185 213 12,000  Level Denver Center
Thu 07:49:57 PM 45.1347 -103.0194 North 184 212 12,000  Level Denver Center
Thu 07:50:59 PM 45.1850 -103.0119 North 184 212 12,000  Level Denver Center
Thu 07:52:01 PM 45.2350 -103.0050 North 183 211 12,000  Level Denver Center
Thu 07:53:04 PM 45.2833 -102.9997 North 182 209 12,000  Level Denver Center
Thu 07:54:06 PM 45.3428 -102.9928 North 181 208 12,000  Level Denver Center
Thu 07:55:08 PM 45.3922 -102.9881 North 181 208 12,000  Level Denver Center
Thu 07:56:10 PM 45.4417 -102.9806 North 181 208 12,000  Level Denver Center
Thu 07:57:33 PM 45.5150 -102.9697 North 181 208 12,000 -41 Level Minneapolis Center
Thu 07:58:35 PM 45.5650 -102.9625 North 181 208 11,900  Descending Minneapolis Center
Thu 07:59:38 PM 45.6144 -102.9564 North 181 208 12,000 -96 Climbing Minneapolis Center
Thu 08:00:40 PM 45.6653 -102.9503 North 181 208 11,700 -242 Descending Minneapolis Center
Thu 08:01:42 PM 45.7236 -102.9411 North 182 209 11,500 -194 Descending Minneapolis Center
Thu 08:02:44 PM 45.7753 -102.9314 North 182 209 11,300 -242 Descending Minneapolis Center
Thu 08:03:46 PM 45.8264 -102.9225 North 184 212 11,000 -387 Descending Minneapolis Center
Thu 08:04:48 PM 45.8786 -102.9167 North 185 213 10,500 -532 Descending Minneapolis Center
Thu 08:05:50 PM 45.9439 -102.9103 North 191 220 9,900 -435 Descending Minneapolis Center
Thu 08:06:52 PM 45.9981 -102.9022 North 192 221 9,600 -384 Descending Minneapolis Center
Thu 08:07:55 PM 46.0522 -102.8947 North 192 221 9,100 -432 Descending Minneapolis Center
Thu 08:08:57 PM 46.1072 -102.8864 North 193 222 8,700 -387 Descending Minneapolis Center
Thu 08:09:59 PM 46.1614 -102.8803 North 194 223 8,300 -339 Descending Minneapolis Center
Thu 08:11:01 PM 46.2267 -102.8722 North 194 223 8,000 -290 Descending Minneapolis Center
Thu 08:12:03 PM 46.2797 -102.8661 North 194 223 7,700 -339 Descending Minneapolis Center
Thu 08:13:05 PM 46.3339 -102.8600 North 194 223 7,300 -387 Descending Minneapolis Center
Thu 08:14:07 PM 46.3867 -102.8542 North 194 223 6,900 -432 Descending Minneapolis Center
Thu 08:15:10 PM 46.4400 -102.8475 North 194 223 6,400 -288 Descending Minneapolis Center
Thu 08:16:12 PM 46.4900 -102.8328 11° North 191 220 6,300 -242 Descending Minneapolis Center
Thu 08:17:14 PM 46.5489 -102.8117 14° North 186 214 5,900 -288 Descending Minneapolis Center
Thu 08:18:17 PM 46.5992 -102.7953 13° North 186 214 5,700 -240 Descending Minneapolis Center
Thu 08:19:19 PM 46.6533 -102.7764 13° North 186 214 5,400 -290 Descending Minneapolis Center

Login

Don't have an account? Register now (free) for customized features, flight alerts, and more!